Mitchell, SD

12:40 AM CST on December 06, 2019 (GMT -0600)
Mitchell Municipal | | Change Station
Active Advisory: Flood Warning

Elev 1302 ft 43.77 °N, 98.04 °W | Updated 47 minutes ago

Overcast
Overcast
27 °F
Feels Like 16 °F
N
13
Wind Variable Wind from NNW

Today
High -- | Low -- °F
--% Chance of Precip.
Yesterday
High -- | Low -- °F
Precip. -- in
Pressure 30.39 in
Visibility 10.0 miles
Clouds Overcast 1500 ft
Windchill 16 °F
Dew Point 22 °F
Humidity 81%
Rainfall 0.00 in
Snow Depth Not available.
7:51 AM 4:54 PM
Waxing Gibbous, 68% visible
METAR KMHE 060553Z AUTO 34011KT 10SM OVC015 M03/M06 A3034 RMK AO2 SLP291 T10281056 10000 21028 400391056 51027
Pressure 30.39 in
Visibility 10.0 miles
Clouds Overcast 1500 ft
Windchill 16 °F
Dew Point 22 °F
Humidity 81%
Rainfall 0.00 in
Snow Depth Not available.
7:51 AM 4:54 PM
Waxing Gibbous, 68% visible
METAR KMHE 060553Z AUTO 34011KT 10SM OVC015 M03/M06 A3034 RMK AO2 SLP291 T10281056 10000 21028 400391056 51027

Get Your Daily Forecast Email!

Thanks for signing up!

Be on the lookout for a verification email in your inbox.

You'll start receiving severe weather alerts in your inbox..

×

10-Day Weather Forecast

Almanac

Astronomy

Dec. 06, 2019 Rise Set
Actual Time
Civil Twilight
Nautical Twilight
Astronomical Twilight
Moon
Length of Visible Light
Length of Day
Tomorrow will be .
, % of the Moon is Illuminated

Today's Extremes

State Highs State Lows

Community

WunderPhotos

Category 6

Welcome to Category 6. This is the collective home for Weather Underground's featured writeups by Dr. Jeff Masters (right), Bob Henson (left), Chris Burt, and other regular contributors.

Nearby

Air Quality

  Air Quality AQ Index Pollutant
Not available.

Snow Depth

Station Depth Elevation

Earthquake Activity

City Distance Mag. Time & Date
Minimum magnitude displayed is 2.5.

Coastal Water Temperatures

Place Temperature

Stations

Nearby Weather Stations

Station Location Temp. Windchill Dew Point Humidity Wind Precip. Elev Updated Type
                   

Watches & Warnings

Flood Warning
Issued: 11:22 AM CST Dec. 5, 2019 – National Weather Service

The Flood Warning continues for
the James River at Mitchell.
* Until further notice.
* At 10am Thursday the stage was 19.17 feet.
* Minor flooding is occurring and minor flooding is forecast.
* Flood stage is 17.00 feet.
* Forecast... the river will continue to slowly fall.
* At stages near 20.0 feet... the higher banks overflow.


Lat... Lon 4393 9812 4393 9798 4370 9789 4340 9763
          4338 9777 4351 9797


Location flood latest observed maximum forecast recent observed
         stage stage time stage time crest time

Missouri River
mrnn1 21.0 24.11 Thu 11 am 25.5 Tue Nov 26

James River
hurs2 11.0 13.89 Thu 10 am 14.1 Sat 12 PM